sensor_id;sensor_type;location;lat;lon;timestamp;P1;P2;P0
73146;PMS7003;61345;48.922;2.244;2023-04-24T00:02:17;2.00;1.00;0.00
73146;PMS7003;61345;48.922;2.244;2023-04-24T00:04:42;4.50;0.50;0.00
73146;PMS7003;61345;48.922;2.244;2023-04-24T00:07:11;1.00;1.00;1.00
73146;PMS7003;61345;48.922;2.244;2023-04-24T00:09:36;4.00;1.00;0.00
73146;PMS7003;61345;48.922;2.244;2023-04-24T00:12:01;1.00;1.00;1.00
73146;PMS7003;61345;48.922;2.244;2023-04-24T00:14:29;0.50;0.00;0.00
73146;PMS7003;61345;48.922;2.244;2023-04-24T00:16:54;0.50;0.50;0.50
73146;PMS7003;61345;48.922;2.244;2023-04-24T00:19:19;1.33;0.00;0.00
73146;PMS7003;61345;48.922;2.244;2023-04-24T00:21:46;2.00;0.00;0.00
73146;PMS7003;61345;48.922;2.244;2023-04-24T00:24:11;1.00;1.00;1.00
73146;PMS7003;61345;48.922;2.244;2023-04-24T00:26:36;0.67;0.67;0.67
73146;PMS7003;61345;48.922;2.244;2023-04-24T00:29:02;1.00;0.00;0.00
73146;PMS7003;61345;48.922;2.244;2023-04-24T00:31:27;0.00;0.00;0.00
73146;PMS7003;61345;48.922;2.244;2023-04-24T00:33:52;1.00;1.00;0.00
73146;PMS7003;61345;48.922;2.244;2023-04-24T00:36:17;1.00;1.00;0.33
73146;PMS7003;61345;48.922;2.244;2023-04-24T00:38:45;0.75;0.75;0.75
73146;PMS7003;61345;48.922;2.244;2023-04-24T00:41:10;0.00;0.00;0.00
73146;PMS7003;61345;48.922;2.244;2023-04-24T00:43:35;2.67;1.00;0.67
73146;PMS7003;61345;48.922;2.244;2023-04-24T00:46:01;0.00;0.00;0.00
73146;PMS7003;61345;48.922;2.244;2023-04-24T00:48:26;1.00;0.00;0.00
73146;PMS7003;61345;48.922;2.244;2023-04-24T00:50:52;1.00;1.00;0.00
73146;PMS7003;61345;48.922;2.244;2023-04-24T00:53:17;1.00;0.00;0.00
73146;PMS7003;61345;48.922;2.244;2023-04-24T00:55:42;3.00;0.00;0.00
73146;PMS7003;61345;48.922;2.244;2023-04-24T00:58:08;1.25;1.00;0.75
73146;PMS7003;61345;48.922;2.244;2023-04-24T01:00:33;0.00;0.00;0.00
73146;PMS7003;61345;48.922;2.244;2023-04-24T01:02:59;1.00;0.00;0.00
73146;PMS7003;61345;48.922;2.244;2023-04-24T01:05:26;0.00;0.00;0.00
73146;PMS7003;61345;48.922;2.244;2023-04-24T01:07:52;1.00;1.00;1.00
73146;PMS7003;61345;48.922;2.244;2023-04-24T01:10:17;0.00;0.00;0.00
73146;PMS7003;61345;48.922;2.244;2023-04-24T01:12:45;1.25;0.50;0.00
73146;PMS7003;61345;48.922;2.244;2023-04-24T01:15:10;1.00;0.25;0.00
73146;PMS7003;61345;48.922;2.244;2023-04-24T01:17:35;1.00;1.00;1.00
73146;PMS7003;61345;48.922;2.244;2023-04-24T01:20:01;2.00;0.00;0.00
73146;PMS7003;61345;48.922;2.244;2023-04-24T01:22:29;0.50;0.50;0.00
73146;PMS7003;61345;48.922;2.244;2023-04-24T01:24:54;1.75;0.00;0.00
73146;PMS7003;61345;48.922;2.244;2023-04-24T01:27:19;5.00;0.00;0.00
73146;PMS7003;61345;48.922;2.244;2023-04-24T01:29:45;2.00;0.00;0.00
73146;PMS7003;61345;48.922;2.244;2023-04-24T01:32:10;1.25;1.00;1.00
73146;PMS7003;61345;48.922;2.244;2023-04-24T01:34:35;2.00;0.00;0.00
73146;PMS7003;61345;48.922;2.244;2023-04-24T01:37:02;0.00;0.00;0.00
73146;PMS7003;61345;48.922;2.244;2023-04-24T01:39:27;4.33;0.00;0.00
73146;PMS7003;61345;48.922;2.244;2023-04-24T01:41:53;0.50;0.00;0.00
73146;PMS7003;61345;48.922;2.244;2023-04-24T01:44:18;0.00;0.00;0.00
73146;PMS7003;61345;48.922;2.244;2023-04-24T01:46:44;2.33;1.00;1.00
73146;PMS7003;61345;48.922;2.244;2023-04-24T01:49:09;0.00;0.00;0.00
73146;PMS7003;61345;48.922;2.244;2023-04-24T01:51:34;0.00;0.00;0.00
73146;PMS7003;61345;48.922;2.244;2023-04-24T01:54:00;0.25;0.25;0.00
73146;PMS7003;61345;48.922;2.244;2023-04-24T01:56:25;2.00;0.33;0.33
73146;PMS7003;61345;48.922;2.244;2023-04-24T01:58:50;1.75;0.00;0.00
73146;PMS7003;61345;48.922;2.244;2023-04-24T02:01:20;0.00;0.00;0.00
73146;PMS7003;61345;48.922;2.244;2023-04-24T02:03:45;1.00;0.00;0.00
73146;PMS7003;61345;48.922;2.244;2023-04-24T02:06:11;0.33;0.33;0.00
73146;PMS7003;61345;48.922;2.244;2023-04-24T02:08:36;1.75;1.00;0.75
73146;PMS7003;61345;48.922;2.244;2023-04-24T02:11:01;0.00;0.00;0.00
73146;PMS7003;61345;48.922;2.244;2023-04-24T02:13:27;1.00;0.00;0.00
73146;PMS7003;61345;48.922;2.244;2023-04-24T02:15:52;0.00;0.00;0.00
73146;PMS7003;61345;48.922;2.244;2023-04-24T02:18:17;0.00;0.00;0.00
73146;PMS7003;61345;48.922;2.244;2023-04-24T02:20:42;2.00;0.00;0.00
73146;PMS7003;61345;48.922;2.244;2023-04-24T02:23:08;3.33;1.00;0.00
73146;PMS7003;61345;48.922;2.244;2023-04-24T02:25:33;2.00;0.67;0.67
73146;PMS7003;61345;48.922;2.244;2023-04-24T02:27:58;2.00;0.75;0.75
73146;PMS7003;61345;48.922;2.244;2023-04-24T02:30:23;5.00;0.00;0.00
73146;PMS7003;61345;48.922;2.244;2023-04-24T02:32:48;2.00;0.00;0.00
73146;PMS7003;61345;48.922;2.244;2023-04-24T02:35:14;2.75;0.00;0.00
73146;PMS7003;61345;48.922;2.244;2023-04-24T02:37:39;0.00;0.00;0.00
73146;PMS7003;61345;48.922;2.244;2023-04-24T02:40:05;2.00;1.00;0.00
73146;PMS7003;61345;48.922;2.244;2023-04-24T02:42:30;0.75;0.00;0.00
73146;PMS7003;61345;48.922;2.244;2023-04-24T02:44:56;2.00;0.00;0.00
73146;PMS7003;61345;48.922;2.244;2023-04-24T02:47:21;0.00;0.00;0.00
73146;PMS7003;61345;48.922;2.244;2023-04-24T02:49:46;3.00;1.00;0.00
73146;PMS7003;61345;48.922;2.244;2023-04-24T02:52:11;1.33;1.00;1.00
73146;PMS7003;61345;48.922;2.244;2023-04-24T02:54:36;0.00;0.00;0.00
73146;PMS7003;61345;48.922;2.244;2023-04-24T02:57:02;0.00;0.00;0.00
73146;PMS7003;61345;48.922;2.244;2023-04-24T02:59:27;1.50;0.00;0.00
73146;PMS7003;61345;48.922;2.244;2023-04-24T03:01:53;1.00;1.00;0.00
73146;PMS7003;61345;48.922;2.244;2023-04-24T03:04:19;0.00;0.00;0.00
73146;PMS7003;61345;48.922;2.244;2023-04-24T03:06:45;0.00;0.00;0.00
73146;PMS7003;61345;48.922;2.244;2023-04-24T03:09:10;0.75;0.00;0.00
73146;PMS7003;61345;48.922;2.244;2023-04-24T03:11:36;0.00;0.00;0.00
73146;PMS7003;61345;48.922;2.244;2023-04-24T03:14:01;0.00;0.00;0.00
73146;PMS7003;61345;48.922;2.244;2023-04-24T03:16:26;0.50;0.00;0.00
73146;PMS7003;61345;48.922;2.244;2023-04-24T03:18:51;2.00;0.00;0.00
73146;PMS7003;61345;48.922;2.244;2023-04-24T03:21:17;1.00;1.00;1.00
73146;PMS7003;61345;48.922;2.244;2023-04-24T03:23:42;0.00;0.00;0.00
73146;PMS7003;61345;48.922;2.244;2023-04-24T03:26:07;0.00;0.00;0.00
73146;PMS7003;61345;48.922;2.244;2023-04-24T03:28:32;0.00;0.00;0.00
73146;PMS7003;61345;48.922;2.244;2023-04-24T03:30:57;0.00;0.00;0.00
73146;PMS7003;61345;48.922;2.244;2023-04-24T03:33:23;0.00;0.00;0.00
73146;PMS7003;61345;48.922;2.244;2023-04-24T03:35:48;2.00;1.00;0.00
73146;PMS7003;61345;48.922;2.244;2023-04-24T03:38:13;0.00;0.00;0.00
73146;PMS7003;61345;48.922;2.244;2023-04-24T03:40:38;1.00;1.00;0.00
73146;PMS7003;61345;48.922;2.244;2023-04-24T03:43:04;1.50;1.50;1.00
73146;PMS7003;61345;48.922;2.244;2023-04-24T03:45:29;1.67;1.00;0.67
73146;PMS7003;61345;48.922;2.244;2023-04-24T03:47:54;2.00;0.00;0.00
73146;PMS7003;61345;48.922;2.244;2023-04-24T03:50:19;0.00;0.00;0.00
73146;PMS7003;61345;48.922;2.244;2023-04-24T03:52:45;0.00;0.00;0.00
73146;PMS7003;61345;48.922;2.244;2023-04-24T03:55:10;1.00;1.00;0.33
73146;PMS7003;61345;48.922;2.244;2023-04-24T03:57:37;0.00;0.00;0.00
73146;PMS7003;61345;48.922;2.244;2023-04-24T04:00:03;0.00;0.00;0.00
73146;PMS7003;61345;48.922;2.244;2023-04-24T04:02:29;0.25;0.00;0.00
73146;PMS7003;61345;48.922;2.244;2023-04-24T04:04:54;1.00;0.00;0.00
73146;PMS7003;61345;48.922;2.244;2023-04-24T04:07:20;0.67;0.00;0.00
73146;PMS7003;61345;48.922;2.244;2023-04-24T04:09:45;1.00;0.00;0.00
73146;PMS7003;61345;48.922;2.244;2023-04-24T04:12:10;0.00;0.00;0.00
73146;PMS7003;61345;48.922;2.244;2023-04-24T04:14:35;2.00;0.00;0.00
73146;PMS7003;61345;48.922;2.244;2023-04-24T04:17:00;1.00;1.00;0.00
73146;PMS7003;61345;48.922;2.244;2023-04-24T04:19:26;0.67;0.67;0.00
73146;PMS7003;61345;48.922;2.244;2023-04-24T04:21:51;1.00;0.00;0.00
73146;PMS7003;61345;48.922;2.244;2023-04-24T04:24:18;4.00;0.00;0.00
73146;PMS7003;61345;48.922;2.244;2023-04-24T04:26:45;0.75;0.75;0.00
73146;PMS7003;61345;48.922;2.244;2023-04-24T04:29:12;0.25;0.00;0.00
73146;PMS7003;61345;48.922;2.244;2023-04-24T04:31:37;0.00;0.00;0.00
73146;PMS7003;61345;48.922;2.244;2023-04-24T04:34:02;1.00;0.33;0.00
73146;PMS7003;61345;48.922;2.244;2023-04-24T04:36:27;0.00;0.00;0.00
73146;PMS7003;61345;48.922;2.244;2023-04-24T04:38:54;0.00;0.00;0.00
73146;PMS7003;61345;48.922;2.244;2023-04-24T04:41:19;0.00;0.00;0.00
73146;PMS7003;61345;48.922;2.244;2023-04-24T04:43:45;0.25;0.00;0.00
73146;PMS7003;61345;48.922;2.244;2023-04-24T04:46:11;1.00;0.00;0.00
73146;PMS7003;61345;48.922;2.244;2023-04-24T04:48:36;1.00;1.00;0.00
73146;PMS7003;61345;48.922;2.244;2023-04-24T04:51:02;0.75;0.00;0.00
73146;PMS7003;61345;48.922;2.244;2023-04-24T04:53:27;1.00;1.00;0.50
73146;PMS7003;61345;48.922;2.244;2023-04-24T04:55:52;0.00;0.00;0.00
73146;PMS7003;61345;48.922;2.244;2023-04-24T04:58:18;2.25;0.25;0.00
73146;PMS7003;61345;48.922;2.244;2023-04-24T05:00:43;0.33;0.33;0.00
73146;PMS7003;61345;48.922;2.244;2023-04-24T05:03:09;0.50;0.25;0.25
73146;PMS7003;61345;48.922;2.244;2023-04-24T05:05:34;2.00;2.00;1.00
73146;PMS7003;61345;48.922;2.244;2023-04-24T05:07:59;1.00;1.00;0.00
73146;PMS7003;61345;48.922;2.244;2023-04-24T05:10:24;2.67;2.00;0.67
73146;PMS7003;61345;48.922;2.244;2023-04-24T05:12:50;1.75;0.00;0.00
73146;PMS7003;61345;48.922;2.244;2023-04-24T05:15:15;1.00;1.00;0.00
73146;PMS7003;61345;48.922;2.244;2023-04-24T05:17:40;0.67;0.67;0.67
73146;PMS7003;61345;48.922;2.244;2023-04-24T05:20:05;1.00;1.00;0.75
73146;PMS7003;61345;48.922;2.244;2023-04-24T05:22:31;2.50;1.00;1.00
73146;PMS7003;61345;48.922;2.244;2023-04-24T05:24:56;0.00;0.00;0.00
73146;PMS7003;61345;48.922;2.244;2023-04-24T05:27:22;4.50;0.00;0.00
73146;PMS7003;61345;48.922;2.244;2023-04-24T05:29:47;2.00;2.00;1.00
73146;PMS7003;61345;48.922;2.244;2023-04-24T05:32:12;3.00;1.00;1.00
73146;PMS7003;61345;48.922;2.244;2023-04-24T05:34:37;2.00;1.00;1.00
73146;PMS7003;61345;48.922;2.244;2023-04-24T05:37:03;2.00;0.33;0.00
73146;PMS7003;61345;48.922;2.244;2023-04-24T05:39:28;1.25;1.25;1.25
73146;PMS7003;61345;48.922;2.244;2023-04-24T05:41:54;1.25;1.25;1.00
73146;PMS7003;61345;48.922;2.244;2023-04-24T05:44:19;2.00;1.00;1.00
73146;PMS7003;61345;48.922;2.244;2023-04-24T05:46:45;2.00;1.00;0.33
73146;PMS7003;61345;48.922;2.244;2023-04-24T05:49:10;5.00;2.00;1.00
73146;PMS7003;61345;48.922;2.244;2023-04-24T05:51:35;1.75;1.25;1.00
73146;PMS7003;61345;48.922;2.244;2023-04-24T05:54:01;1.50;0.25;0.00
73146;PMS7003;61345;48.922;2.244;2023-04-24T05:56:27;2.75;1.00;1.00
73146;PMS7003;61345;48.922;2.244;2023-04-24T05:58:53;2.00;2.00;1.00
73146;PMS7003;61345;48.922;2.244;2023-04-24T06:01:18;1.00;0.67;0.67
73146;PMS7003;61345;48.922;2.244;2023-04-24T06:03:44;2.00;2.00;1.00
73146;PMS7003;61345;48.922;2.244;2023-04-24T06:06:10;1.00;1.00;1.00
73146;PMS7003;61345;48.922;2.244;2023-04-24T06:08:35;1.67;1.67;1.00
73146;PMS7003;61345;48.922;2.244;2023-04-24T06:11:00;3.00;2.00;1.00
73146;PMS7003;61345;48.922;2.244;2023-04-24T06:13:25;1.00;1.00;1.00
73146;PMS7003;61345;48.922;2.244;2023-04-24T06:15:51;5.00;1.67;1.00
73146;PMS7003;61345;48.922;2.244;2023-04-24T06:18:16;2.00;2.00;1.00
73146;PMS7003;61345;48.922;2.244;2023-04-24T06:20:41;3.00;2.25;1.50
73146;PMS7003;61345;48.922;2.244;2023-04-24T06:23:06;3.00;2.00;1.33
73146;PMS7003;61345;48.922;2.244;2023-04-24T06:25:32;3.00;1.33;1.00
73146;PMS7003;61345;48.922;2.244;2023-04-24T06:27:57;3.00;2.50;1.25
73146;PMS7003;61345;48.922;2.244;2023-04-24T06:30:22;5.50;1.50;1.00
73146;PMS7003;61345;48.922;2.244;2023-04-24T06:32:47;2.75;2.00;1.00
73146;PMS7003;61345;48.922;2.244;2023-04-24T06:35:13;1.33;1.33;1.00
73146;PMS7003;61345;48.922;2.244;2023-04-24T06:37:39;6.00;4.33;2.67
73146;PMS7003;61345;48.922;2.244;2023-04-24T06:40:07;5.00;2.00;1.25
73146;PMS7003;61345;48.922;2.244;2023-04-24T06:42:33;3.75;1.75;1.75
73146;PMS7003;61345;48.922;2.244;2023-04-24T06:44:59;2.00;2.00;2.00
73146;PMS7003;61345;48.922;2.244;2023-04-24T06:47:25;5.00;2.00;1.33
73146;PMS7003;61345;48.922;2.244;2023-04-24T06:49:50;5.00;2.00;1.67
73146;PMS7003;61345;48.922;2.244;2023-04-24T06:52:17;1.00;0.00;0.00
73146;PMS7003;61345;48.922;2.244;2023-04-24T06:54:42;5.00;2.25;2.00
73146;PMS7003;61345;48.922;2.244;2023-04-24T06:57:08;3.67;3.00;1.67
73146;PMS7003;61345;48.922;2.244;2023-04-24T06:59:33;4.00;2.75;2.00
73146;PMS7003;61345;48.922;2.244;2023-04-24T07:01:58;4.33;3.00;2.00
73146;PMS7003;61345;48.922;2.244;2023-04-24T07:04:24;5.75;2.00;1.50
73146;PMS7003;61345;48.922;2.244;2023-04-24T07:06:50;6.00;2.00;1.00
73146;PMS7003;61345;48.922;2.244;2023-04-24T07:09:16;3.00;2.50;2.00
73146;PMS7003;61345;48.922;2.244;2023-04-24T07:11:43;4.75;2.00;1.75
73146;PMS7003;61345;48.922;2.244;2023-04-24T07:14:09;3.00;2.00;1.00
73146;PMS7003;61345;48.922;2.244;2023-04-24T07:16:34;4.00;2.75;2.00
73146;PMS7003;61345;48.922;2.244;2023-04-24T07:19:00;4.00;2.00;2.00
73146;PMS7003;61345;48.922;2.244;2023-04-24T07:21:25;5.33;3.00;2.33
73146;PMS7003;61345;48.922;2.244;2023-04-24T07:23:50;5.67;4.33;2.00
73146;PMS7003;61345;48.922;2.244;2023-04-24T07:26:16;2.50;2.00;1.75
73146;PMS7003;61345;48.922;2.244;2023-04-24T07:28:41;5.33;5.00;3.00
73146;PMS7003;61345;48.922;2.244;2023-04-24T07:31:06;6.33;3.00;2.00
73146;PMS7003;61345;48.922;2.244;2023-04-24T07:33:32;5.25;3.25;2.00
73146;PMS7003;61345;48.922;2.244;2023-04-24T07:35:57;2.25;2.25;1.75
73146;PMS7003;61345;48.922;2.244;2023-04-24T07:38:23;3.00;3.00;2.50
73146;PMS7003;61345;48.922;2.244;2023-04-24T07:40:50;10.50;4.00;2.50
73146;PMS7003;61345;48.922;2.244;2023-04-24T07:43:15;6.00;3.00;2.00
73146;PMS7003;61345;48.922;2.244;2023-04-24T07:45:41;3.00;3.00;2.67
73146;PMS7003;61345;48.922;2.244;2023-04-24T07:48:06;5.33;3.00;2.00
73146;PMS7003;61345;48.922;2.244;2023-04-24T07:50:33;2.25;2.25;2.00
73146;PMS7003;61345;48.922;2.244;2023-04-24T07:52:59;5.75;3.25;2.50
73146;PMS7003;61345;48.922;2.244;2023-04-24T07:55:25;3.00;3.00;2.00
73146;PMS7003;61345;48.922;2.244;2023-04-24T07:57:50;2.67;2.33;2.00
73146;PMS7003;61345;48.922;2.244;2023-04-24T08:00:16;7.00;1.00;1.00
73146;PMS7003;61345;48.922;2.244;2023-04-24T08:02:41;5.00;3.00;2.50
73146;PMS7003;61345;48.922;2.244;2023-04-24T08:05:06;3.67;3.67;2.33
73146;PMS7003;61345;48.922;2.244;2023-04-24T08:07:31;5.00;1.75;1.50
73146;PMS7003;61345;48.922;2.244;2023-04-24T08:09:57;12.33;3.00;2.00
73146;PMS7003;61345;48.922;2.244;2023-04-24T08:12:22;8.33;3.00;2.00
73146;PMS7003;61345;48.922;2.244;2023-04-24T08:14:47;5.00;4.25;2.25
73146;PMS7003;61345;48.922;2.244;2023-04-24T08:17:12;4.00;2.33;2.00
73146;PMS7003;61345;48.922;2.244;2023-04-24T08:19:39;3.67;2.33;2.00
73146;PMS7003;61345;48.922;2.244;2023-04-24T08:22:07;3.00;3.00;2.00
73146;PMS7003;61345;48.922;2.244;2023-04-24T08:24:32;7.00;4.33;3.00
73146;PMS7003;61345;48.922;2.244;2023-04-24T08:26:57;2.67;2.00;2.00
73146;PMS7003;61345;48.922;2.244;2023-04-24T08:29:23;6.50;4.00;2.75
73146;PMS7003;61345;48.922;2.244;2023-04-24T08:31:48;2.67;1.33;1.33
73146;PMS7003;61345;48.922;2.244;2023-04-24T08:34:13;3.00;3.00;2.00
73146;PMS7003;61345;48.922;2.244;2023-04-24T08:36:38;4.00;4.00;3.67
73146;PMS7003;61345;48.922;2.244;2023-04-24T08:39:05;3.00;3.00;2.00
73146;PMS7003;61345;48.922;2.244;2023-04-24T08:41:31;6.00;4.00;3.67
73146;PMS7003;61345;48.922;2.244;2023-04-24T08:43:56;6.75;4.50;3.00
73146;PMS7003;61345;48.922;2.244;2023-04-24T08:46:23;6.00;3.75;2.00
73146;PMS7003;61345;48.922;2.244;2023-04-24T08:48:49;7.75;5.50;3.50
73146;PMS7003;61345;48.922;2.244;2023-04-24T08:51:15;7.00;5.50;3.00
73146;PMS7003;61345;48.922;2.244;2023-04-24T08:53:42;9.25;4.00;3.00
73146;PMS7003;61345;48.922;2.244;2023-04-24T08:56:07;11.75;7.25;3.25
73146;PMS7003;61345;48.922;2.244;2023-04-24T08:58:32;8.67;6.00;4.00
73146;PMS7003;61345;48.922;2.244;2023-04-24T09:00:58;7.00;4.00;3.00
73146;PMS7003;61345;48.922;2.244;2023-04-24T09:03:23;11.00;6.00;4.00
73146;PMS7003;61345;48.922;2.244;2023-04-24T09:05:49;8.75;3.75;2.50
73146;PMS7003;61345;48.922;2.244;2023-04-24T09:08:16;7.50;3.50;2.50
73146;PMS7003;61345;48.922;2.244;2023-04-24T09:10:42;4.50;3.00;2.00
73146;PMS7003;61345;48.922;2.244;2023-04-24T09:13:08;2.50;2.50;2.00
73146;PMS7003;61345;48.922;2.244;2023-04-24T09:15:35;6.25;4.00;3.75
73146;PMS7003;61345;48.922;2.244;2023-04-24T09:18:00;9.00;3.75;3.50
73146;PMS7003;61345;48.922;2.244;2023-04-24T09:20:26;13.25;4.00;3.00
73146;PMS7003;61345;48.922;2.244;2023-04-24T09:22:53;9.67;6.00;4.00
73146;PMS7003;61345;48.922;2.244;2023-04-24T09:25:18;7.50;6.25;4.00
73146;PMS7003;61345;48.922;2.244;2023-04-24T09:27:44;8.67;4.67;3.33
73146;PMS7003;61345;48.922;2.244;2023-04-24T09:30:10;7.50;7.25;3.75
73146;PMS7003;61345;48.922;2.244;2023-04-24T09:32:35;7.50;6.00;5.00
73146;PMS7003;61345;48.922;2.244;2023-04-24T09:37:36;3.25;2.00;2.00
73146;PMS7003;61345;48.922;2.244;2023-04-24T09:40:08;9.00;8.00;6.75
73146;PMS7003;61345;48.922;2.244;2023-04-24T09:42:35;8.25;4.25;3.00
73146;PMS7003;61345;48.922;2.244;2023-04-24T09:45:01;9.33;3.00;2.00
73146;PMS7003;61345;48.922;2.244;2023-04-24T09:47:26;5.75;5.75;4.00
73146;PMS7003;61345;48.922;2.244;2023-04-24T09:49:51;11.67;6.00;4.00
73146;PMS7003;61345;48.922;2.244;2023-04-24T09:52:22;6.75;5.75;3.50
73146;PMS7003;61345;48.922;2.244;2023-04-24T09:54:52;5.75;2.25;2.25
73146;PMS7003;61345;48.922;2.244;2023-04-24T09:57:17;6.25;3.00;2.00
73146;PMS7003;61345;48.922;2.244;2023-04-24T09:59:42;7.00;4.00;3.33
73146;PMS7003;61345;48.922;2.244;2023-04-24T10:02:19;8.25;4.00;2.00
73146;PMS7003;61345;48.922;2.244;2023-04-24T10:04:53;6.25;4.25;3.00
73146;PMS7003;61345;48.922;2.244;2023-04-24T10:07:20;5.00;2.75;2.25
73146;PMS7003;61345;48.922;2.244;2023-04-24T10:09:45;9.00;3.00;2.33
73146;PMS7003;61345;48.922;2.244;2023-04-24T10:12:10;12.00;4.00;3.00
73146;PMS7003;61345;48.922;2.244;2023-04-24T10:14:36;7.75;3.75;2.75
73146;PMS7003;61345;48.922;2.244;2023-04-24T10:17:01;8.00;4.00;3.00
73146;PMS7003;61345;48.922;2.244;2023-04-24T10:19:27;3.50;2.50;2.00
73146;PMS7003;61345;48.922;2.244;2023-04-24T10:21:54;4.00;3.00;3.00
73146;PMS7003;61345;48.922;2.244;2023-04-24T10:24:21;4.00;4.00;3.75
73146;PMS7003;61345;48.922;2.244;2023-04-24T10:26:46;6.33;5.00;3.00
73146;PMS7003;61345;48.922;2.244;2023-04-24T10:29:13;7.00;4.25;3.00
73146;PMS7003;61345;48.922;2.244;2023-04-24T10:31:40;8.00;5.00;3.00
73146;PMS7003;61345;48.922;2.244;2023-04-24T10:34:06;6.00;3.50;2.25
73146;PMS7003;61345;48.922;2.244;2023-04-24T10:36:35;7.25;4.00;3.50
73146;PMS7003;61345;48.922;2.244;2023-04-24T10:39:02;5.00;4.00;3.00
73146;PMS7003;61345;48.922;2.244;2023-04-24T10:41:28;11.00;4.00;3.00
73146;PMS7003;61345;48.922;2.244;2023-04-24T10:44:07;4.00;4.00;3.00
73146;PMS7003;61345;48.922;2.244;2023-04-24T10:46:33;6.00;3.50;3.00
73146;PMS7003;61345;48.922;2.244;2023-04-24T10:48:58;5.00;4.00;3.00
73146;PMS7003;61345;48.922;2.244;2023-04-24T10:51:24;5.00;4.00;2.75
73146;PMS7003;61345;48.922;2.244;2023-04-24T10:53:51;8.50;2.75;2.00
73146;PMS7003;61345;48.922;2.244;2023-04-24T10:56:16;5.00;2.75;2.00
73146;PMS7003;61345;48.922;2.244;2023-04-24T10:58:45;9.50;3.75;3.00
73146;PMS7003;61345;48.922;2.244;2023-04-24T11:01:24;3.00;3.00;3.00
73146;PMS7003;61345;48.922;2.244;2023-04-24T11:03:53;4.75;4.00;3.00
73146;PMS7003;61345;48.922;2.244;2023-04-24T11:09:16;4.50;4.25;3.00
73146;PMS7003;61345;48.922;2.244;2023-04-24T11:21:24;6.75;4.00;3.00
73146;PMS7003;61345;48.922;2.244;2023-04-24T11:27:06;8.00;3.25;2.50
73146;PMS7003;61345;48.922;2.244;2023-04-24T11:32:33;5.00;3.00;2.00
73146;PMS7003;61345;48.922;2.244;2023-04-24T11:38:19;4.75;3.00;2.75
73146;PMS7003;61345;48.922;2.244;2023-04-24T11:53:30;3.75;3.00;2.00
73146;PMS7003;61345;48.922;2.244;2023-04-24T11:56:04;1.75;1.00;1.00
73146;PMS7003;61345;48.922;2.244;2023-04-24T11:58:47;4.00;2.00;2.00
73146;PMS7003;61345;48.922;2.244;2023-04-24T12:04:14;3.75;2.50;1.50
73146;PMS7003;61345;48.922;2.244;2023-04-24T12:07:01;4.00;1.75;1.00
73146;PMS7003;61345;48.922;2.244;2023-04-24T12:09:26;1.75;1.75;1.00
73146;PMS7003;61345;48.922;2.244;2023-04-24T12:11:55;2.00;2.00;1.00
73146;PMS7003;61345;48.922;2.244;2023-04-24T12:14:22;3.00;1.00;1.00
73146;PMS7003;61345;48.922;2.244;2023-04-24T12:16:48;4.00;2.00;1.25
73146;PMS7003;61345;48.922;2.244;2023-04-24T12:19:17;4.00;2.00;2.00
73146;PMS7003;61345;48.922;2.244;2023-04-24T12:21:45;3.00;0.25;0.25
73146;PMS7003;61345;48.922;2.244;2023-04-24T12:24:23;2.00;1.00;1.00
73146;PMS7003;61345;48.922;2.244;2023-04-24T12:26:48;2.00;1.00;1.00
73146;PMS7003;61345;48.922;2.244;2023-04-24T12:29:19;2.67;1.00;0.33
73146;PMS7003;61345;48.922;2.244;2023-04-24T12:31:45;2.00;0.75;0.25
73146;PMS7003;61345;48.922;2.244;2023-04-24T12:34:23;3.67;1.33;1.00
73146;PMS7003;61345;48.922;2.244;2023-04-24T12:36:48;0.75;0.75;0.00
73146;PMS7003;61345;48.922;2.244;2023-04-24T12:39:15;0.75;0.75;0.25
73146;PMS7003;61345;48.922;2.244;2023-04-24T12:41:49;1.25;1.25;1.00
73146;PMS7003;61345;48.922;2.244;2023-04-24T12:44:15;1.00;1.00;1.00
73146;PMS7003;61345;48.922;2.244;2023-04-24T12:46:43;1.00;1.00;1.00
73146;PMS7003;61345;48.922;2.244;2023-04-24T12:52:04;1.00;1.00;1.00
73146;PMS7003;61345;48.922;2.244;2023-04-24T12:54:32;0.25;0.25;0.25
73146;PMS7003;61345;48.922;2.244;2023-04-24T12:56:57;0.75;0.75;0.75
73146;PMS7003;61345;48.922;2.244;2023-04-24T12:59:22;5.00;1.00;1.00
73146;PMS7003;61345;48.922;2.244;2023-04-24T13:01:48;4.00;1.00;1.00
73146;PMS7003;61345;48.922;2.244;2023-04-24T13:04:13;1.00;1.00;1.00
73146;PMS7003;61345;48.922;2.244;2023-04-24T13:06:38;1.00;1.00;0.67
73146;PMS7003;61345;48.922;2.244;2023-04-24T13:09:03;2.50;1.00;1.00
73146;PMS7003;61345;48.922;2.244;2023-04-24T13:11:29;0.00;0.00;0.00
73146;PMS7003;61345;48.922;2.244;2023-04-24T13:13:56;0.00;0.00;0.00
73146;PMS7003;61345;48.922;2.244;2023-04-24T13:16:24;0.00;0.00;0.00
73146;PMS7003;61345;48.922;2.244;2023-04-24T13:18:50;0.00;0.00;0.00
73146;PMS7003;61345;48.922;2.244;2023-04-24T13:21:15;0.67;0.67;0.67
73146;PMS7003;61345;48.922;2.244;2023-04-24T13:23:58;0.75;0.75;0.50
73146;PMS7003;61345;48.922;2.244;2023-04-24T13:26:23;2.00;1.00;1.00
73146;PMS7003;61345;48.922;2.244;2023-04-24T13:28:52;1.00;1.00;0.33
73146;PMS7003;61345;48.922;2.244;2023-04-24T13:31:17;0.50;0.00;0.00
73146;PMS7003;61345;48.922;2.244;2023-04-24T13:33:42;2.25;0.75;0.00
73146;PMS7003;61345;48.922;2.244;2023-04-24T13:36:08;2.00;0.00;0.00
73146;PMS7003;61345;48.922;2.244;2023-04-24T13:38:33;0.33;0.33;0.00
73146;PMS7003;61345;48.922;2.244;2023-04-24T13:46:53;1.00;1.00;0.50
73146;PMS7003;61345;48.922;2.244;2023-04-24T13:49:22;0.00;0.00;0.00
73146;PMS7003;61345;48.922;2.244;2023-04-24T13:51:50;0.50;0.50;0.00
73146;PMS7003;61345;48.922;2.244;2023-04-24T13:54:26;1.00;1.00;0.75
73146;PMS7003;61345;48.922;2.244;2023-04-24T13:56:57;4.00;1.00;1.00
73146;PMS7003;61345;48.922;2.244;2023-04-24T13:59:22;0.00;0.00;0.00
73146;PMS7003;61345;48.922;2.244;2023-04-24T14:04:45;1.00;1.00;1.00
73146;PMS7003;61345;48.922;2.244;2023-04-24T14:07:15;1.75;1.00;1.00
73146;PMS7003;61345;48.922;2.244;2023-04-24T14:09:43;1.75;0.50;0.00
73146;PMS7003;61345;48.922;2.244;2023-04-24T14:12:11;3.75;1.00;1.00
73146;PMS7003;61345;48.922;2.244;2023-04-24T14:17:33;0.00;0.00;0.00
73146;PMS7003;61345;48.922;2.244;2023-04-24T14:19:59;1.75;1.75;1.00
73146;PMS7003;61345;48.922;2.244;2023-04-24T14:22:25;1.00;1.00;1.00
73146;PMS7003;61345;48.922;2.244;2023-04-24T14:24:50;1.00;1.00;0.50
73146;PMS7003;61345;48.922;2.244;2023-04-24T14:27:16;0.75;0.75;0.75
73146;PMS7003;61345;48.922;2.244;2023-04-24T14:29:41;0.00;0.00;0.00
73146;PMS7003;61345;48.922;2.244;2023-04-24T14:32:06;1.00;1.00;1.00
73146;PMS7003;61345;48.922;2.244;2023-04-24T14:34:43;1.00;1.00;0.75
73146;PMS7003;61345;48.922;2.244;2023-04-24T14:37:08;0.00;0.00;0.00
73146;PMS7003;61345;48.922;2.244;2023-04-24T14:39:33;1.00;0.00;0.00
73146;PMS7003;61345;48.922;2.244;2023-04-24T14:41:58;1.33;0.00;0.00
73146;PMS7003;61345;48.922;2.244;2023-04-24T14:44:24;0.00;0.00;0.00
73146;PMS7003;61345;48.922;2.244;2023-04-24T14:46:49;0.00;0.00;0.00
73146;PMS7003;61345;48.922;2.244;2023-04-24T14:49:15;2.00;0.00;0.00
73146;PMS7003;61345;48.922;2.244;2023-04-24T14:51:40;0.75;0.00;0.00
73146;PMS7003;61345;48.922;2.244;2023-04-24T14:54:06;1.50;0.25;0.00
73146;PMS7003;61345;48.922;2.244;2023-04-24T14:56:31;2.00;1.00;1.00
73146;PMS7003;61345;48.922;2.244;2023-04-24T14:58:57;3.00;1.00;1.00
73146;PMS7003;61345;48.922;2.244;2023-04-24T15:01:22;0.50;0.50;0.25
73146;PMS7003;61345;48.922;2.244;2023-04-24T15:03:48;2.00;0.25;0.00
73146;PMS7003;61345;48.922;2.244;2023-04-24T15:06:14;1.75;0.25;0.00
73146;PMS7003;61345;48.922;2.244;2023-04-24T15:08:39;0.50;0.00;0.00
73146;PMS7003;61345;48.922;2.244;2023-04-24T15:11:12;1.00;1.00;0.00